createdAt,value
2023-01-28T00:01:53.030Z,101390.50
2023-01-28T00:04:19.594Z,101364.22
2023-01-28T00:06:47.751Z,101387.72
2023-01-28T00:09:14.401Z,101376.31
2023-01-28T00:11:41.122Z,101390.19
2023-01-28T00:14:08.445Z,101386.81
2023-01-28T00:16:35.183Z,101380.72
2023-01-28T00:19:01.854Z,101378.09
2023-01-28T00:21:29.307Z,101373.81
2023-01-28T00:23:56.707Z,101363.97
2023-01-28T00:26:25.994Z,101392.19
2023-01-28T00:28:52.971Z,101391.28
2023-01-28T00:31:22.199Z,101400.97
2023-01-28T00:33:50.558Z,101401.72
2023-01-28T00:36:19.423Z,101396.59
2023-01-28T00:39:14.383Z,101403.59
2023-01-28T00:41:41.021Z,101394.75
2023-01-28T00:44:09.046Z,101395.81
2023-01-28T00:46:35.725Z,101399.28
2023-01-28T00:49:02.412Z,101405.19
2023-01-28T00:51:29.068Z,101404.97
2023-01-28T00:53:55.657Z,101396.34
2023-01-28T00:56:23.037Z,101397.22
2023-01-28T00:58:49.626Z,101387.91
2023-01-28T01:01:22.309Z,101391.59
2023-01-28T01:03:57.570Z,101388.97
2023-01-28T01:06:25.341Z,101397.00
2023-01-28T01:08:52.025Z,101398.72
2023-01-28T01:11:19.135Z,101407.38
2023-01-28T01:13:50.635Z,101392.50
2023-01-28T01:16:17.772Z,101345.25
2023-01-28T01:18:44.568Z,101402.19
2023-01-28T01:21:14.648Z,101406.59
2023-01-28T01:23:41.684Z,101392.78
2023-01-28T01:26:09.029Z,101385.00
2023-01-28T01:28:36.829Z,101397.09
2023-01-28T01:31:15.814Z,101396.16
2023-01-28T01:33:43.367Z,101391.72
2023-01-28T01:36:11.983Z,101397.84
2023-01-28T01:38:38.963Z,101399.59
2023-01-28T01:41:06.584Z,101404.81
2023-01-28T01:43:56.064Z,101414.53
2023-01-28T01:46:43.626Z,101410.34
2023-01-28T01:49:20.322Z,101419.91
2023-01-28T01:51:51.371Z,101403.34
2023-01-28T01:54:20.399Z,101429.47
2023-01-28T01:56:52.471Z,101415.38
2023-01-28T01:59:25.771Z,101426.78
2023-01-28T02:01:53.521Z,101425.88
2023-01-28T02:04:28.976Z,101414.50
2023-01-28T02:06:57.835Z,101417.19
2023-01-28T02:09:27.675Z,101418.94
2023-01-28T02:12:14.113Z,101423.44
2023-01-28T02:14:53.085Z,101424.25
2023-01-28T02:17:20.332Z,101425.25
2023-01-28T02:19:57.261Z,101435.81
2023-01-28T02:22:47.466Z,101441.03
2023-01-28T02:25:51.298Z,101442.88
2023-01-28T02:28:31.275Z,101437.59
2023-01-28T02:31:07.807Z,101438.47
2023-01-28T02:33:39.903Z,101433.34
2023-01-28T02:36:19.099Z,101438.53
2023-01-28T02:38:53.058Z,101434.06
2023-01-28T02:41:32.455Z,101381.06
2023-01-28T02:44:03.135Z,101449.59
2023-01-28T02:46:48.303Z,101458.44
2023-01-28T02:49:19.134Z,101456.63
2023-01-28T02:52:02.670Z,101461.69
2023-01-28T02:54:58.036Z,101459.13
2023-01-28T02:57:45.261Z,101442.34
2023-01-28T03:00:17.661Z,101443.22
2023-01-28T03:02:54.672Z,101454.84
2023-01-28T03:05:35.399Z,101456.38
2023-01-28T03:08:24.843Z,101394.28
2023-01-28T03:11:15.233Z,101459.97
2023-01-28T03:14:02.604Z,101442.53
2023-01-28T03:16:52.002Z,101431.09
2023-01-28T03:19:37.496Z,101460.91
2023-01-28T03:22:24.236Z,101472.06
2023-01-28T03:25:12.874Z,101467.75
2023-01-28T03:28:19.233Z,101472.72
2023-01-28T03:31:21.905Z,101454.28
2023-01-28T03:34:09.564Z,101472.91
2023-01-28T03:36:53.387Z,101451.81
2023-01-28T03:39:26.243Z,101460.56
2023-01-28T03:42:07.106Z,101456.13
2023-01-28T03:44:52.829Z,101447.28
2023-01-28T03:47:25.075Z,101470.13
2023-01-28T03:49:55.555Z,101463.16
2023-01-28T03:52:33.655Z,101468.34
2023-01-28T03:55:01.165Z,101478.63
2023-01-28T03:57:31.544Z,101477.59
2023-01-28T03:59:58.386Z,101476.69
2023-01-28T04:02:28.109Z,101481.97
2023-01-28T04:04:54.678Z,101488.84
2023-01-28T04:07:22.462Z,101457.28
2023-01-28T04:09:49.102Z,101488.84
2023-01-28T04:12:16.080Z,101484.50
2023-01-28T04:14:42.709Z,101455.25
2023-01-28T04:17:13.050Z,101455.38
2023-01-28T04:19:40.438Z,101482.50
2023-01-28T04:22:10.659Z,101492.16
2023-01-28T21:39:24.687Z,101284.06
2023-01-28T21:41:51.686Z,101282.53
2023-01-28T21:44:18.335Z,101270.66
2023-01-28T21:46:46.978Z,101266.69
2023-01-28T21:49:14.054Z,101266.91
2023-01-28T21:51:45.987Z,101268.84
2023-01-28T21:54:17.811Z,101267.31
2023-01-28T21:56:45.894Z,101265.78
2023-01-28T21:59:39.973Z,101264.31
2023-01-28T22:04:58.777Z,101251.69
2023-01-28T22:07:31.629Z,101217.72
2023-01-28T22:09:58.279Z,101236.16
2023-01-28T22:12:28.410Z,101235.34
2023-01-28T22:14:55.185Z,101233.75
2023-01-28T22:17:21.984Z,101233.91
2023-01-28T22:19:50.210Z,101227.94
2023-01-28T22:22:20.127Z,101223.75
2023-01-28T22:24:46.960Z,101217.81
2023-01-28T22:27:14.251Z,101210.03
2023-01-28T22:29:41.301Z,101211.72
2023-01-28T22:32:07.984Z,101206.56
2023-01-28T22:34:36.200Z,101211.81
2023-01-28T22:37:03.803Z,101212.78
2023-01-28T22:39:30.374Z,101205.97
2023-01-28T22:41:58.236Z,101206.84
2023-01-28T22:44:26.388Z,101198.22
2023-01-28T22:46:52.998Z,101175.38
2023-01-28T22:49:19.833Z,101179.72
2023-01-28T22:51:46.450Z,101203.31
2023-01-28T22:54:14.896Z,101205.09
2023-01-28T22:56:42.469Z,101193.03
2023-01-28T22:59:11.096Z,101187.81
2023-01-28T23:01:37.922Z,101193.78
2023-01-28T23:04:05.540Z,101194.69
2023-01-28T23:06:32.463Z,101184.34
2023-01-28T23:08:59.130Z,101183.44
2023-01-28T23:11:27.275Z,101190.41
2023-01-28T23:14:20.991Z,101181.81
2023-01-28T23:17:07.339Z,101174.94
2023-01-28T23:19:52.903Z,101162.69
2023-01-28T23:22:47.242Z,101173.84
2023-01-28T23:25:13.949Z,101160.72
2023-01-28T23:27:41.094Z,101161.50
2023-01-28T23:30:10.286Z,101153.66
2023-01-28T23:32:45.511Z,101156.47
2023-01-28T23:35:13.498Z,101156.38
2023-01-28T23:37:42.677Z,101160.75
2023-01-28T23:40:09.888Z,101159.03
2023-01-28T23:42:36.687Z,101138.25
2023-01-28T23:45:04.178Z,101147.13
2023-01-28T23:47:33.252Z,101148.97
2023-01-28T23:50:00.591Z,101142.84
2023-01-28T23:52:37.352Z,101144.53
2023-01-28T23:55:07.851Z,101148.81
2023-01-28T23:57:40.944Z,101150.63
